createdAt,value
2018-01-06T00:00:12.520Z,9.00
2018-01-06T00:02:38.349Z,9.00
2018-01-06T00:05:04.201Z,9.00
2018-01-06T00:07:30.029Z,9.20
2018-01-06T00:09:55.862Z,9.10
2018-01-06T00:12:21.692Z,8.90
2018-01-06T00:14:47.521Z,9.00
2018-01-06T00:17:13.382Z,8.90
2018-01-06T00:19:40.018Z,9.00
2018-01-06T00:22:05.853Z,8.90
2018-01-06T00:24:31.679Z,9.00
2018-01-06T00:26:57.510Z,9.00
2018-01-06T00:29:23.334Z,9.00
2018-01-06T00:31:49.186Z,9.00
2018-01-06T00:34:15.022Z,9.00
2018-01-06T00:36:40.869Z,9.00
2018-01-06T00:39:06.706Z,9.10
2018-01-06T00:41:32.754Z,9.10
2018-01-06T00:43:58.601Z,9.00
2018-01-06T00:46:24.422Z,9.30
2018-01-06T00:48:50.244Z,9.20
2018-01-06T00:51:16.074Z,9.30
2018-01-06T00:53:41.910Z,9.20
2018-01-06T00:56:07.734Z,9.10
2018-01-06T00:58:33.565Z,9.10
2018-01-06T01:00:59.394Z,9.10
2018-01-06T01:03:25.969Z,9.30
2018-01-06T01:05:51.799Z,9.30
2018-01-06T01:08:17.638Z,9.20
2018-01-06T01:10:43.479Z,9.20
2018-01-06T01:13:09.310Z,9.40
2018-01-06T01:15:35.146Z,9.40
2018-01-06T01:18:00.969Z,9.30
2018-01-06T01:20:26.793Z,9.20
2018-01-06T01:22:52.630Z,9.10
2018-01-06T01:25:18.454Z,8.80
2018-01-06T01:27:44.294Z,9.10
2018-01-06T01:30:10.292Z,9.10
2018-01-06T01:32:36.137Z,9.00
2018-01-06T01:35:01.966Z,9.00
2018-01-06T01:37:27.795Z,8.90
2018-01-06T01:39:54.358Z,8.90
2018-01-06T01:42:20.189Z,8.90
2018-01-06T01:44:46.018Z,9.00
2018-01-06T01:47:11.858Z,8.70
2018-01-06T01:49:37.697Z,8.70
2018-01-06T01:52:03.521Z,8.60
2018-01-06T01:54:29.358Z,8.80
2018-01-06T01:56:55.193Z,8.80
2018-01-06T01:59:21.030Z,8.80
2018-01-06T02:01:46.860Z,8.70
2018-01-06T02:04:12.722Z,8.60
2018-01-06T02:06:38.545Z,8.60
2018-01-06T02:09:04.401Z,8.60
2018-01-06T02:11:30.232Z,8.60
2018-01-06T02:13:56.805Z,8.80
2018-01-06T02:16:23.377Z,8.80
2018-01-06T02:18:49.216Z,8.90
2018-01-06T02:21:15.053Z,9.00
2018-01-06T02:23:40.899Z,9.00
2018-01-06T02:26:06.725Z,8.90
2018-01-06T02:28:33.044Z,8.80
2018-01-06T02:30:58.870Z,8.70
2018-01-06T02:33:24.723Z,8.70
2018-01-06T02:35:50.550Z,8.70
2018-01-06T02:38:16.386Z,8.70
2018-01-06T02:40:42.230Z,8.60
2018-01-06T02:43:08.060Z,8.80
2018-01-06T02:45:33.897Z,8.80
2018-01-06T02:47:59.734Z,8.90
2018-01-06T02:50:25.566Z,8.90
2018-01-06T02:55:22.358Z,8.70
2018-01-06T02:57:48.180Z,8.60
2018-01-06T03:00:14.028Z,8.60
2018-01-06T03:02:40.612Z,8.50
2018-01-06T03:05:06.428Z,8.40
2018-01-06T03:07:32.992Z,8.40
2018-01-06T03:09:59.567Z,8.50
2018-01-06T03:12:25.381Z,8.50
2018-01-06T03:14:51.201Z,8.60
2018-01-06T03:17:17.772Z,8.60
2018-01-06T03:19:43.635Z,8.60
2018-01-06T03:22:09.463Z,8.60
2018-01-06T03:24:35.285Z,8.60
2018-01-06T03:27:01.116Z,8.60
2018-01-06T03:29:26.936Z,8.40
2018-01-06T03:31:52.760Z,8.40
2018-01-06T03:34:18.584Z,8.40
2018-01-06T03:36:44.424Z,8.40
2018-01-06T03:39:10.264Z,8.40
2018-01-06T03:41:36.088Z,8.50
2018-01-06T03:44:01.912Z,8.50
2018-01-06T03:46:27.732Z,8.50
2018-01-06T03:48:54.297Z,8.80
2018-01-06T03:51:20.128Z,8.80
2018-01-06T03:53:45.952Z,8.70
2018-01-06T03:56:11.798Z,8.70
2018-01-06T03:58:37.625Z,8.60
2018-01-06T04:01:03.444Z,8.60
2018-01-06T04:03:29.592Z,8.70
2018-01-06T04:05:55.412Z,8.70
2018-01-06T04:08:21.984Z,8.80
2018-01-06T04:10:47.809Z,8.80
2018-01-06T04:13:13.647Z,8.80
2018-01-06T04:15:39.473Z,8.70
2018-01-06T04:18:05.300Z,8.60
2018-01-06T04:20:31.120Z,8.70
2018-01-06T04:22:56.952Z,8.60
2018-01-06T04:25:23.516Z,8.50
2018-01-06T04:27:49.344Z,8.50
2018-01-06T04:30:15.172Z,8.50
2018-01-06T04:32:41.018Z,8.60
2018-01-06T04:35:06.840Z,8.50
2018-01-06T04:37:32.672Z,8.40
2018-01-06T04:39:58.488Z,8.40
2018-01-06T04:42:25.048Z,8.40
2018-01-06T04:44:50.872Z,8.40
2018-01-06T04:47:17.445Z,8.50
2018-01-06T04:49:43.281Z,8.50
2018-01-06T04:52:09.104Z,8.50
2018-01-06T04:54:34.916Z,8.50
2018-01-06T04:57:00.740Z,8.50
2018-01-06T04:59:27.312Z,8.60
2018-01-06T05:01:53.128Z,8.60
2018-01-06T05:04:19.696Z,8.60
2018-01-06T05:06:46.274Z,8.80
2018-01-06T05:09:12.121Z,8.80
2018-01-06T05:11:37.945Z,8.70
2018-01-06T05:14:03.772Z,8.60
2018-01-06T05:16:29.600Z,8.50
2018-01-06T05:18:55.432Z,8.50
2018-01-06T05:21:21.248Z,8.60
2018-01-06T05:23:47.082Z,8.60
2018-01-06T05:26:12.909Z,8.60
2018-01-06T05:28:38.731Z,8.50
2018-01-06T05:31:04.552Z,8.50
2018-01-06T05:33:30.380Z,8.60
2018-01-06T05:35:56.196Z,8.70
2018-01-06T05:38:22.760Z,8.60
2018-01-06T05:40:48.621Z,8.60
2018-01-06T05:43:14.475Z,8.60
2018-01-06T05:45:40.300Z,8.60
2018-01-06T05:48:06.124Z,8.60
2018-01-06T05:50:31.952Z,8.60
2018-01-06T05:52:58.057Z,8.70
2018-01-06T05:55:23.880Z,8.80
2018-01-06T05:57:49.744Z,8.80
2018-01-06T06:00:15.584Z,8.70
2018-01-06T06:02:41.409Z,8.70
2018-01-06T06:05:07.245Z,8.70
2018-01-06T06:07:33.064Z,8.80
2018-01-06T06:09:58.892Z,8.60
2018-01-06T06:12:24.708Z,8.50
2018-01-06T06:14:50.540Z,8.50
2018-01-06T06:17:16.370Z,8.40
2018-01-06T06:19:42.204Z,8.60
2018-01-06T06:22:08.021Z,8.60
2018-01-06T06:24:34.590Z,8.70
2018-01-06T06:27:00.416Z,8.70
2018-01-06T06:29:26.236Z,8.70
2018-01-06T06:31:52.834Z,8.40
2018-01-06T06:34:18.679Z,8.40
2018-01-06T06:36:44.508Z,8.50
2018-01-06T06:39:10.327Z,8.60
2018-01-06T06:41:36.180Z,8.60
2018-01-06T06:44:02.004Z,8.60
2018-01-06T06:46:27.827Z,8.70
2018-01-06T06:48:53.644Z,8.50
2018-01-06T06:51:19.481Z,8.50
2018-01-06T06:53:45.307Z,8.40
2018-01-06T06:56:11.145Z,8.50
2018-01-06T06:58:36.984Z,8.70
2018-01-06T07:01:02.804Z,8.70
2018-01-06T07:03:28.625Z,8.70
2018-01-06T07:05:54.465Z,8.60
2018-01-06T07:08:20.301Z,8.50
2018-01-06T07:10:46.133Z,8.40
2018-01-06T07:13:11.960Z,8.40
2018-01-06T07:15:37.781Z,8.50
2018-01-06T07:18:03.618Z,8.40
2018-01-06T07:20:29.448Z,8.30
2018-01-06T07:22:55.273Z,8.30
2018-01-06T07:25:21.087Z,8.40
2018-01-06T07:27:47.669Z,8.40
2018-01-06T07:30:13.504Z,8.30
2018-01-06T07:32:39.328Z,8.40
2018-01-06T07:35:05.140Z,8.40
2018-01-06T07:37:30.966Z,8.50
2018-01-06T07:39:56.780Z,8.70
2018-01-06T07:42:23.351Z,8.60
2018-01-06T07:44:49.177Z,8.50
2018-01-06T07:47:15.009Z,8.60
2018-01-06T07:49:40.828Z,8.70
2018-01-06T07:52:07.388Z,8.60
2018-01-06T07:54:33.212Z,8.60
2018-01-06T07:56:59.785Z,8.50
2018-01-06T07:59:25.596Z,8.50
2018-01-06T08:01:52.168Z,8.80
2018-01-06T08:04:18.006Z,8.90
2018-01-06T08:06:43.853Z,8.90
2018-01-06T08:09:09.694Z,9.00
2018-01-06T08:11:35.516Z,9.10
2018-01-06T08:14:01.344Z,9.20
2018-01-06T08:16:27.169Z,9.20
2018-01-06T08:18:52.992Z,9.30
2018-01-06T08:21:18.828Z,9.30
2018-01-06T08:23:44.673Z,9.20
2018-01-06T08:26:10.508Z,9.30
2018-01-06T08:28:36.340Z,9.20
2018-01-06T08:31:02.444Z,9.20
2018-01-06T08:33:28.269Z,9.40
2018-01-06T08:35:54.088Z,9.40
2018-01-06T08:38:20.655Z,9.20
2018-01-06T08:40:46.480Z,9.20
2018-01-06T08:43:12.307Z,9.10
2018-01-06T08:45:38.859Z,9.10
2018-01-06T08:48:04.910Z,9.10
2018-01-06T08:50:30.735Z,9.20
2018-01-06T08:52:56.549Z,9.10
2018-01-06T08:55:23.120Z,9.20
2018-01-06T08:57:49.265Z,9.10
2018-01-06T09:00:15.119Z,9.10
2018-01-06T09:02:40.940Z,9.20
2018-01-06T09:05:06.776Z,9.30
2018-01-06T09:07:32.597Z,9.50
2018-01-06T09:09:58.439Z,9.40
2018-01-06T09:12:24.256Z,9.50
2018-01-06T09:14:50.085Z,9.50
2018-01-06T09:17:15.943Z,9.60
2018-01-06T09:19:41.764Z,9.70
2018-01-06T09:22:07.577Z,9.70
2018-01-06T09:24:33.416Z,9.80
2018-01-06T09:26:59.237Z,9.80
2018-01-06T09:29:25.060Z,9.80
2018-01-06T09:31:50.887Z,9.80
2018-01-06T09:34:17.506Z,9.80
2018-01-06T09:36:43.340Z,9.80
2018-01-06T09:39:09.420Z,9.80
2018-01-06T09:41:35.245Z,9.60
2018-01-06T09:44:01.065Z,9.60
2018-01-06T09:46:27.629Z,9.80
2018-01-06T09:48:53.452Z,9.80
2018-01-06T09:51:19.292Z,10.00
2018-01-06T09:53:45.150Z,10.20
2018-01-06T09:56:10.983Z,10.40
2018-01-06T09:58:36.803Z,10.40
2018-01-06T10:01:02.638Z,10.40
2018-01-06T10:03:28.464Z,10.50
2018-01-06T10:05:54.288Z,10.50
2018-01-06T10:08:20.119Z,10.70
2018-01-06T10:10:45.983Z,10.70
2018-01-06T10:13:11.809Z,10.60
2018-01-06T10:15:37.648Z,10.60
2018-01-06T10:18:03.474Z,10.60
2018-01-06T10:20:29.301Z,10.70
2018-01-06T10:22:55.132Z,10.70
2018-01-06T10:25:20.956Z,10.80
2018-01-06T10:27:46.810Z,10.90
2018-01-06T10:30:12.644Z,10.90
2018-01-06T10:32:38.476Z,11.00
2018-01-06T10:35:04.288Z,11.00
2018-01-06T10:37:30.120Z,10.90
2018-01-06T10:39:55.937Z,10.90
2018-01-06T10:42:21.765Z,10.90
2018-01-06T10:44:47.670Z,11.00
2018-01-06T10:47:14.427Z,11.20
2018-01-06T10:49:40.988Z,11.30
2018-01-06T10:52:07.548Z,11.40
2018-01-06T10:54:33.364Z,11.30
2018-01-06T10:56:59.924Z,11.50
2018-01-06T10:59:25.762Z,11.50
2018-01-06T11:01:57.799Z,11.60
2018-01-06T11:04:23.635Z,11.50
2018-01-06T11:06:50.264Z,11.70
2018-01-06T11:09:16.103Z,11.60
2018-01-06T11:11:41.928Z,11.70
2018-01-06T11:14:07.751Z,11.70
2018-01-06T11:16:33.569Z,11.70
2018-01-06T11:18:59.424Z,11.40
2018-01-06T11:21:25.219Z,11.40
2018-01-06T11:23:51.080Z,11.20
2018-01-06T11:26:16.925Z,11.30
2018-01-06T11:28:42.758Z,11.40
2018-01-06T11:31:08.680Z,11.40
2018-01-06T11:33:34.500Z,11.50
2018-01-06T11:36:00.323Z,11.50
2018-01-06T11:38:29.418Z,11.50
2018-01-06T11:40:55.245Z,11.60
2018-01-06T11:43:21.135Z,11.50
2018-01-06T11:45:46.956Z,11.50
2018-01-06T11:48:12.780Z,11.50
2018-01-06T11:50:38.596Z,11.50
2018-01-06T11:53:04.424Z,11.40
2018-01-06T11:55:30.252Z,11.40
2018-01-06T11:57:56.105Z,11.50
2018-01-06T12:00:21.948Z,11.40
2018-01-06T12:02:47.772Z,11.30
2018-01-06T12:05:13.600Z,11.10
2018-01-06T12:07:39.430Z,11.00
2018-01-06T12:10:05.520Z,11.00
2018-01-06T12:12:31.416Z,11.00
2018-01-06T12:14:57.665Z,11.00
2018-01-06T12:17:23.793Z,11.00
2018-01-06T12:19:49.829Z,10.90
2018-01-06T12:22:15.908Z,10.90
2018-01-06T12:24:41.916Z,10.70
2018-01-06T12:27:08.689Z,10.80
2018-01-06T12:29:35.366Z,10.60
2018-01-06T12:32:01.382Z,10.60
2018-01-06T12:34:27.396Z,10.70
2018-01-06T12:36:53.577Z,10.80
2018-01-06T12:39:20.811Z,10.50
2018-01-06T12:41:47.201Z,10.50
2018-01-06T12:44:13.204Z,10.60
2018-01-06T12:46:39.060Z,10.60
2018-01-06T12:49:05.176Z,10.60
2018-01-06T12:51:31.005Z,10.60
2018-01-06T12:53:56.853Z,10.70
2018-01-06T12:56:22.706Z,10.80
2018-01-06T12:58:48.528Z,10.90
2018-01-06T13:01:14.352Z,10.80
2018-01-06T13:03:40.164Z,10.90
2018-01-06T13:06:05.995Z,10.90
2018-01-06T13:08:31.829Z,10.90
2018-01-06T13:10:57.664Z,11.00
2018-01-06T13:13:23.498Z,10.90
2018-01-06T13:15:49.320Z,10.90
2018-01-06T13:18:15.144Z,10.90
2018-01-06T13:20:41.706Z,10.90
2018-01-06T13:23:07.524Z,10.80
2018-01-06T13:25:34.097Z,10.70
2018-01-06T13:27:59.928Z,10.60
2018-01-06T13:30:25.764Z,10.60
2018-01-06T13:32:51.636Z,10.50
2018-01-06T13:35:17.456Z,10.50
2018-01-06T13:37:43.288Z,10.50
2018-01-06T13:40:09.104Z,10.60
2018-01-06T13:42:34.931Z,10.60
2018-01-06T13:45:00.778Z,10.70
2018-01-06T13:47:26.613Z,10.60
2018-01-06T13:49:52.455Z,10.60
2018-01-06T13:52:18.280Z,10.70
2018-01-06T13:54:44.096Z,10.80
2018-01-06T13:57:09.932Z,10.70
2018-01-06T13:59:35.744Z,10.70
2018-01-06T14:02:01.585Z,10.80
2018-01-06T14:04:27.408Z,10.70
2018-01-06T14:06:53.260Z,10.80
2018-01-06T14:09:19.099Z,10.80
2018-01-06T14:11:44.940Z,10.80
2018-01-06T14:14:10.761Z,10.70
2018-01-06T14:16:36.592Z,10.50
2018-01-06T14:19:02.423Z,10.40
2018-01-06T14:21:28.257Z,10.60
2018-01-06T14:23:54.101Z,10.60
2018-01-06T14:26:19.928Z,10.50
2018-01-06T14:28:45.756Z,10.60
2018-01-06T14:31:11.572Z,10.50
2018-01-06T14:33:37.435Z,10.60
2018-01-06T14:36:03.259Z,10.60
2018-01-06T14:38:29.089Z,10.70
2018-01-06T14:40:54.945Z,10.60
2018-01-06T14:43:21.547Z,10.50
2018-01-06T14:45:47.372Z,10.40
2018-01-06T14:48:13.211Z,10.50
2018-01-06T14:50:39.028Z,10.50
2018-01-06T14:53:04.868Z,10.70
2018-01-06T14:55:30.695Z,10.60
2018-01-06T14:57:56.569Z,10.60
2018-01-06T15:00:22.405Z,10.40
2018-01-06T15:02:48.234Z,10.40
2018-01-06T15:05:14.056Z,10.30
2018-01-06T15:07:39.872Z,10.20
2018-01-06T15:10:05.696Z,10.20
2018-01-06T15:12:31.508Z,10.20
2018-01-06T15:14:57.343Z,10.20
2018-01-06T15:17:23.177Z,10.10
2018-01-06T15:19:49.000Z,10.00
2018-01-06T15:22:14.820Z,10.00
2018-01-06T15:24:40.644Z,10.00
2018-01-06T15:27:07.210Z,10.10
2018-01-06T15:29:33.065Z,10.00
2018-01-06T15:31:58.893Z,10.10
2018-01-06T15:34:24.719Z,10.00
2018-01-06T15:36:50.562Z,10.00
2018-01-06T15:39:16.404Z,9.90
2018-01-06T15:41:42.224Z,9.90
2018-01-06T15:44:08.044Z,9.90
2018-01-06T15:46:33.864Z,9.90
2018-01-06T15:48:59.689Z,9.80
2018-01-06T15:51:25.524Z,9.60
2018-01-06T15:53:51.368Z,9.50
2018-01-06T15:56:17.196Z,9.30
2018-01-06T15:58:43.016Z,9.30
2018-01-06T16:01:08.844Z,9.20
2018-01-06T16:03:34.660Z,9.20
2018-01-06T16:06:01.224Z,9.00
2018-01-06T16:08:27.077Z,9.00
2018-01-06T16:10:52.932Z,9.00
2018-01-06T16:13:18.747Z,9.10
2018-01-06T16:15:44.581Z,9.00
2018-01-06T16:18:10.405Z,9.00
2018-01-06T16:20:36.227Z,8.90
2018-01-06T16:23:02.057Z,8.80
2018-01-06T16:25:27.876Z,8.70
2018-01-06T16:27:54.440Z,8.50
2018-01-06T16:30:20.289Z,8.50
2018-01-06T16:32:46.108Z,8.40
2018-01-06T16:35:11.945Z,8.40
2018-01-06T16:37:37.773Z,8.50
2018-01-06T16:40:03.598Z,8.40
2018-01-06T16:42:29.432Z,8.40
2018-01-06T16:44:55.289Z,8.40
2018-01-06T16:47:21.169Z,8.40
2018-01-06T16:49:47.792Z,8.20
2018-01-06T16:52:13.620Z,8.20
2018-01-06T16:54:39.444Z,8.20
2018-01-06T16:57:05.264Z,8.10
2018-01-06T16:59:31.084Z,8.20
2018-01-06T17:01:56.920Z,8.20
2018-01-06T17:04:22.868Z,8.20
2018-01-06T17:06:48.688Z,8.20
2018-01-06T17:09:14.520Z,8.00
2018-01-06T17:11:40.340Z,8.00
2018-01-06T17:14:06.174Z,7.90
2018-01-06T17:16:32.000Z,7.90
2018-01-06T17:18:57.889Z,7.80
2018-01-06T17:21:25.196Z,7.70
2018-01-06T17:23:51.045Z,7.70
2018-01-06T17:26:16.896Z,7.70
2018-01-06T17:28:42.740Z,7.70
2018-01-06T17:31:08.568Z,7.70
2018-01-06T17:33:34.408Z,7.70
2018-01-06T17:36:00.232Z,7.70
2018-01-06T17:38:29.940Z,7.60
2018-01-06T17:40:55.946Z,7.60
2018-01-06T17:43:22.240Z,7.70
2018-01-06T17:45:48.066Z,7.60
2018-01-06T17:48:13.903Z,7.70
2018-01-06T17:50:40.102Z,7.70
2018-01-06T17:53:05.925Z,7.60
2018-01-06T17:55:31.749Z,7.70
2018-01-06T17:57:58.809Z,7.60
2018-01-06T18:00:24.325Z,7.60
2018-01-06T18:02:50.943Z,7.60
2018-01-06T18:05:16.772Z,7.70
2018-01-06T18:07:42.596Z,7.70
2018-01-06T18:10:08.428Z,7.70
2018-01-06T18:12:34.249Z,7.60
2018-01-06T18:15:00.085Z,7.60
2018-01-06T18:17:25.921Z,7.60
2018-01-06T18:19:51.776Z,7.60
2018-01-06T18:22:17.602Z,7.60
2018-01-06T18:24:43.440Z,7.50
2018-01-06T18:27:09.276Z,7.60
2018-01-06T18:29:35.096Z,7.50
2018-01-06T18:32:00.908Z,7.50
2018-01-06T18:34:26.758Z,7.50
2018-01-06T18:36:52.625Z,7.50
2018-01-06T18:39:19.192Z,7.60
2018-01-06T18:41:45.012Z,7.50
2018-01-06T18:44:10.836Z,7.50
2018-01-06T18:46:37.405Z,7.60
2018-01-06T18:49:03.228Z,7.50
2018-01-06T18:51:29.109Z,7.60
2018-01-06T18:53:54.890Z,7.60
2018-01-06T18:56:20.724Z,7.60
2018-01-06T18:58:46.543Z,7.50
2018-01-06T19:01:13.116Z,7.40
2018-01-06T19:03:38.936Z,7.30
2018-01-06T19:06:04.769Z,7.40
2018-01-06T19:08:37.533Z,7.40
2018-01-06T19:11:03.360Z,7.40
2018-01-06T19:13:30.665Z,7.50
2018-01-06T19:15:57.094Z,7.40
2018-01-06T19:18:22.960Z,7.50
2018-01-06T19:20:48.780Z,7.60
2018-01-06T19:23:14.600Z,7.50
2018-01-06T19:25:40.428Z,7.40
2018-01-06T19:28:06.244Z,7.30
2018-01-06T19:30:32.837Z,7.40
2018-01-06T19:32:58.637Z,7.40
2018-01-06T19:35:25.293Z,7.30
2018-01-06T19:37:51.151Z,7.30
2018-01-06T19:40:16.972Z,7.30
2018-01-06T19:42:42.791Z,7.40
2018-01-06T19:45:08.608Z,7.40
2018-01-06T19:47:35.178Z,7.40
2018-01-06T19:50:00.993Z,7.40
2018-01-06T19:52:27.584Z,7.50
2018-01-06T19:54:53.445Z,7.50
2018-01-06T19:57:20.020Z,7.40
2018-01-06T19:59:46.580Z,7.30
2018-01-06T20:02:12.408Z,7.30
2018-01-06T20:04:38.220Z,7.40
2018-01-06T20:07:04.785Z,7.40
2018-01-06T20:09:31.350Z,7.40
2018-01-06T20:11:57.184Z,7.40
2018-01-06T20:14:23.045Z,7.40
2018-01-06T20:16:48.872Z,7.30
2018-01-06T20:19:14.693Z,7.30
2018-01-06T20:21:40.515Z,7.30
2018-01-06T20:24:06.338Z,7.30
2018-01-06T20:26:32.156Z,7.30
2018-01-06T20:28:58.741Z,7.20
2018-01-06T20:31:24.604Z,7.20
2018-01-06T20:33:50.455Z,7.20
2018-01-06T20:36:17.028Z,7.20
2018-01-06T20:38:42.860Z,7.20
2018-01-06T20:41:08.690Z,7.20
2018-01-06T20:43:34.520Z,7.30
2018-01-06T20:46:00.346Z,7.30
2018-01-06T20:48:26.920Z,7.40
2018-01-06T20:50:52.761Z,7.40
2018-01-06T20:53:18.592Z,7.40
2018-01-06T20:55:44.416Z,7.50
2018-01-06T20:58:10.244Z,7.50
2018-01-06T21:00:36.116Z,7.50
2018-01-06T21:03:01.944Z,7.40
2018-01-06T21:05:27.769Z,7.40
2018-01-06T21:07:53.645Z,7.50
2018-01-06T21:10:20.208Z,7.60
2018-01-06T21:12:46.028Z,7.60
2018-01-06T21:15:12.599Z,7.60
2018-01-06T21:17:38.419Z,7.60
2018-01-06T21:20:04.238Z,7.70
2018-01-06T21:22:30.802Z,7.80
2018-01-06T21:24:56.648Z,7.80
2018-01-06T21:27:22.481Z,7.80
2018-01-06T21:29:48.303Z,7.70
2018-01-06T21:32:14.124Z,7.70
2018-01-06T21:34:40.698Z,7.80
2018-01-06T21:37:06.522Z,7.80
2018-01-06T21:39:32.353Z,7.70
2018-01-06T21:41:58.176Z,7.80
2018-01-06T21:44:24.011Z,7.70
2018-01-06T21:49:16.359Z,7.50
2018-01-06T21:51:42.168Z,7.50
2018-01-06T21:54:07.992Z,7.60
2018-01-06T21:56:33.819Z,7.60
2018-01-06T21:58:59.656Z,7.50
2018-01-06T22:01:25.488Z,7.50
2018-01-06T22:03:51.331Z,7.50
2018-01-06T22:06:17.153Z,7.50
2018-01-06T22:08:42.984Z,7.40
2018-01-06T22:11:08.811Z,7.40
2018-01-06T22:13:34.913Z,7.40
2018-01-06T22:16:00.736Z,7.30
2018-01-06T22:18:26.560Z,7.30
2018-01-06T22:20:53.138Z,7.20
2018-01-06T22:23:18.956Z,7.20
2018-01-06T22:25:44.780Z,7.20
2018-01-06T22:28:10.593Z,7.20
2018-01-06T22:30:37.156Z,7.30
2018-01-06T22:33:03.716Z,7.30
2018-01-06T22:35:29.536Z,7.30
2018-01-06T22:37:56.096Z,7.50
2018-01-06T22:40:22.033Z,7.50
2018-01-06T22:42:47.848Z,7.40
2018-01-06T22:45:14.416Z,7.40
2018-01-06T22:47:40.235Z,7.40
2018-01-06T22:50:06.808Z,7.40
2018-01-06T22:52:32.640Z,7.40
2018-01-06T22:54:58.493Z,7.30
2018-01-06T22:57:24.344Z,7.30
2018-01-06T22:59:51.202Z,7.20
2018-01-06T23:02:17.204Z,7.20
2018-01-06T23:04:43.021Z,7.30
2018-01-06T23:07:08.848Z,7.30
2018-01-06T23:09:34.672Z,7.20
2018-01-06T23:12:00.712Z,7.10
2018-01-06T23:14:26.568Z,7.10
2018-01-06T23:16:52.420Z,7.00
2018-01-06T23:19:18.240Z,7.00
2018-01-06T23:21:44.059Z,6.90
2018-01-06T23:24:09.877Z,7.00
2018-01-06T23:26:35.703Z,7.00
2018-01-06T23:29:01.520Z,7.00
2018-01-06T23:31:28.080Z,6.90
2018-01-06T23:33:53.936Z,6.90
2018-01-06T23:36:19.787Z,6.90
2018-01-06T23:38:45.612Z,7.00
2018-01-06T23:41:11.640Z,7.00
2018-01-06T23:43:37.468Z,7.00
2018-01-06T23:46:03.284Z,7.00
2018-01-06T23:48:29.113Z,6.90
2018-01-06T23:50:54.958Z,6.90
2018-01-06T23:53:20.820Z,7.00
2018-01-06T23:55:46.640Z,7.00
2018-01-06T23:58:12.460Z,6.90
